Antelope, MT

7:48 AM MDT on September 01, 2014 (GMT -0600)
Sloulin International | Change Station
CLOSE
Current Station
Airport
Location: Williston,
Elevation: 1906 ft
Nearby Weather Stations

Elev 1906 ft 48.17 °N, 103.64 °W | Updated 56 minutes ago

Clear
Clear
49 °F
Feels Like 49 °F
N
5
Wind Variable Wind from WNW

Today
High -- | Low -- °F
--% Chance of Precip.
Yesterday
High -- | Low -- °F
Precip. -- in
6:14 AM 7:39 PM
Waxing Crescent, 41% visible
Pressure 29.84 in
Visibility 10.0 miles
Clouds Clear
Dew Point 46 °F
Humidity 90%
Rainfall 0.00 in
Snow Depth Not available.
UV 0 out of 12
Pollen 8.70 out of 12
Air Quality Not available.
Flu Activity Not available.
METAR KISN 011252Z AUTO 30004KT 10SM CLR 09/08 A2983 RMK AO2 SLP103 T00940078

More Conditions Fewer Conditions

Pressure 29.84 in
Visibility 10.0 miles
Clouds Clear
Dew Point 46 °F
Humidity 90%
Rainfall 0.00 in
Snow Depth Not available.
UV 0 out of 12
Pollen 8.70 out of 12
Air Quality Not available.
Flu Activity Not available.
METAR KISN 011252Z AUTO 30004KT 10SM CLR 09/08 A2983 RMK AO2 SLP103 T00940078

More Conditions Fewer Conditions

10-Day Weather Forecast

Almanac

Astronomy

Sep. 01, 2014 Rise Set
Actual Time 6:14 AM MDT 7:39 PM MDT
Civil Twilight 5:42 AM MDT 8:12 PM MDT
Nautical Twilight 5:02 AM MDT 8:51 PM MDT
Astronomical Twilight 4:19 AM MDT 9:34 PM MDT
Moon 1:36 PM MDT 11:08 PM MDT
Length of Visible Light 14h 29m
Length of Day
13h 24m
Tomorrow will be 3m 27s shorter.
Waxing Crescent, 41% of the Moon is Illuminated
Today
Waxing Crescent
Sep 2
First Quarter
Sep 8
Full
Sep 15
Last Quarter
Sep 24
New

Today's Extremes

State Highs State Lows

Community

WunderPhotos

Upload Photos

1,749,222 photos uploaded!

Nearby

Snow Depth

Station Depth Elevation
Rocky Boy 0 in 4700 ft
Crystal Lake 0 in 6050 ft
Daisy Peak 0 in 7600 ft
Spur Park 1 in 8100 ft
Deadman Creek 0 in 6450 ft

Earthquake Activity

City Distance Mag. Time & Date
No recent earthquake activity has been reported nearby.
Minimum magnitude displayed is 2.5.

Coastal Water Temperatures

Place Temperature
No Stations Reporting

Nearby Weather Stations